Athens Eleftherios, Greece

4:52 PM EET on February 12, 2016 (GMT +0200)
19,7km Markopoulou Ave. | | Change Station
CLOSE
Current Station
Personal Weather Station
Location: Paiania, ATTICA
Elevation: 410 ft
Nearby Weather Stations

Elev 410 ft 37.94 °N, 23.88 °E | Updated 6 seconds ago

Mostly Cloudy
Mostly Cloudy
63.3 °F
Feels Like 63.3 °F
N
4.2
Wind Variable Wind from SE
Gusts 4.9 mph

Today
High -- | Low -- °F
--% Chance of Precip.
Yesterday
High -- | Low -- °F
Precip. -- in
Pressure 29.92 in
Visibility 6.2 miles
Clouds Mostly Cloudy 7000 ft
Dew Point 51 °F
Humidity 65%
Rainfall 0.00 in
Snow Depth Not available.
7:18 AM 5:59 PM
Waxing Crescent, 21% visible
METAR LGAV 121420Z 19020KT 9999 BKN070 16/10 Q1013 NOSIG
Pressure 29.92 in
Visibility 6.2 miles
Clouds Mostly Cloudy 7000 ft
Dew Point 51 °F
Humidity 65%
Rainfall 0.00 in
Snow Depth Not available.
7:18 AM 5:59 PM
Waxing Crescent, 21% visible
METAR LGAV 121420Z 19020KT 9999 BKN070 16/10 Q1013 NOSIG

10-Day Weather Forecast

Almanac

Astronomy

Feb. 12, 2016 Rise Set
Actual Time
Civil Twilight
Nautical Twilight
Astronomical Twilight
Moon
Length of Visible Light
Length of Day
Tomorrow will be .
, % of the Moon is Illuminated

Today's Extremes

Country Highs Country Lows

Community

WunderPhotos

Upload Photos

1,892,318 photos uploaded!

WunderBlog® & News

Nearby

Air Quality

  Air Quality AQ Index Pollutant
Not available.

Snow Depth

Station Depth Elevation

Earthquake Activity

City Distance Mag. Time & Date
Minimum magnitude displayed is 2.5.

Coastal Water Temperatures

Place Temperature

Stations

Nearby Weather Stations

Station Location Temp. Windchill Dew Point Humidity Wind Precip. Elev Updated Type